createdAt,value
2022-09-15T00:03:28.794Z,17.30
2022-09-15T00:07:11.047Z,17.20
2022-09-15T00:11:02.170Z,17.20
2022-09-15T00:14:43.929Z,17.20
2022-09-15T00:18:26.123Z,17.20
2022-09-15T00:22:08.134Z,17.10
2022-09-15T00:25:52.383Z,17.10
2022-09-15T00:29:35.810Z,17.10
2022-09-15T00:33:18.756Z,17.10
2022-09-15T00:37:00.546Z,17.20
2022-09-15T00:40:51.275Z,17.10
2022-09-15T00:44:35.724Z,17.10
2022-09-15T00:48:21.517Z,17.10
2022-09-15T00:52:19.411Z,17.10
2022-09-15T00:56:02.494Z,17.10
2022-09-15T00:59:46.029Z,17.00
2022-09-15T01:03:33.118Z,17.00
2022-09-15T01:07:27.419Z,17.10
2022-09-15T01:11:09.414Z,17.00
2022-09-15T01:14:51.394Z,17.00
2022-09-15T01:18:46.628Z,17.00
2022-09-15T01:22:50.370Z,17.00
2022-09-15T01:26:47.137Z,17.00
2022-09-15T01:30:35.669Z,17.00
2022-09-15T01:34:20.469Z,16.90
2022-09-15T01:38:27.368Z,16.90
2022-09-15T01:42:13.346Z,16.90
2022-09-15T01:45:55.248Z,16.90
2022-09-15T01:49:44.727Z,16.90
2022-09-15T01:53:27.314Z,17.00
2022-09-15T01:57:09.119Z,17.00
2022-09-15T02:01:03.763Z,17.00
2022-09-15T02:05:02.849Z,17.00
2022-09-15T02:08:52.426Z,17.00
2022-09-15T02:12:50.771Z,17.00
2022-09-15T02:16:35.330Z,16.90
2022-09-15T02:20:43.274Z,16.90
2022-09-15T02:24:30.305Z,16.80
2022-09-15T02:28:14.835Z,16.80
2022-09-15T02:32:03.675Z,16.70
2022-09-15T02:35:48.125Z,16.70
2022-09-15T02:39:34.312Z,16.70
2022-09-15T02:43:17.760Z,16.60
2022-09-15T02:47:01.942Z,16.60
2022-09-15T02:50:43.647Z,16.60
2022-09-15T02:54:25.402Z,16.60
2022-09-15T02:58:07.330Z,16.60
2022-09-15T03:01:49.149Z,16.60
2022-09-15T03:05:31.242Z,16.60
2022-09-15T03:09:13.484Z,16.70
2022-09-15T03:12:55.485Z,16.70
2022-09-15T03:16:37.257Z,16.70
2022-09-15T03:20:25.927Z,16.70
2022-09-15T03:24:07.661Z,16.70
2022-09-15T03:27:49.376Z,16.70
2022-09-15T03:31:31.118Z,16.70
2022-09-15T03:35:12.877Z,16.70
2022-09-15T03:38:58.044Z,16.70
2022-09-15T03:42:39.849Z,16.60
2022-09-15T03:46:21.640Z,16.50
2022-09-15T03:50:03.537Z,16.50
2022-09-15T03:53:45.351Z,16.40
2022-09-15T03:57:27.110Z,16.40
2022-09-15T04:01:09.288Z,16.30
2022-09-15T04:04:51.156Z,16.30
2022-09-15T04:08:33.122Z,16.20
2022-09-15T04:12:14.885Z,16.20
2022-09-15T04:16:01.859Z,16.20
2022-09-15T04:19:43.613Z,16.20
2022-09-15T04:23:25.380Z,16.20
2022-09-15T04:27:07.419Z,16.10
2022-09-15T04:30:49.189Z,16.20
2022-09-15T04:34:30.895Z,16.10
2022-09-15T04:38:13.140Z,16.20
2022-09-15T04:41:54.900Z,16.20
2022-09-15T04:45:36.606Z,16.20
2022-09-15T04:49:18.408Z,16.30
2022-09-15T04:53:00.120Z,16.30
2022-09-15T04:56:41.910Z,16.30
2022-09-15T05:00:23.978Z,16.40
2022-09-15T05:04:05.906Z,16.40
2022-09-15T05:07:48.218Z,16.40
2022-09-15T05:11:31.031Z,16.40
2022-09-15T05:15:13.083Z,16.30
2022-09-15T05:18:58.926Z,16.30
2022-09-15T05:22:41.962Z,16.20
2022-09-15T05:26:26.509Z,16.20
2022-09-15T05:30:37.731Z,16.10
2022-09-15T05:34:11.339Z,16.00
2022-09-15T05:37:53.021Z,16.00
2022-09-15T05:41:34.782Z,15.90
2022-09-15T05:45:16.658Z,15.90
2022-09-15T05:48:59.051Z,15.90
2022-09-15T05:52:40.741Z,16.00
2022-09-15T05:56:22.521Z,15.90
2022-09-15T06:00:05.001Z,15.90
2022-09-15T06:03:47.674Z,15.90
2022-09-15T06:07:29.388Z,15.90
2022-09-15T06:11:16.784Z,15.90
2022-09-15T06:14:59.738Z,15.90
2022-09-15T06:18:42.169Z,16.00
2022-09-15T06:22:24.249Z,16.10
2022-09-15T06:26:15.826Z,16.00
2022-09-15T06:29:57.663Z,16.00
2022-09-15T06:33:48.130Z,16.00
2022-09-15T06:37:30.096Z,16.00
2022-09-15T06:41:12.630Z,16.10
2022-09-15T06:44:54.616Z,16.10
2022-09-15T06:48:37.523Z,16.10
2022-09-15T06:52:19.463Z,16.10
2022-09-15T06:56:10.453Z,16.10
2022-09-15T06:59:52.421Z,16.20
2022-09-15T07:03:34.247Z,16.20
2022-09-15T07:07:16.054Z,16.20
2022-09-15T07:10:58.057Z,16.20
2022-09-15T07:14:39.834Z,16.30
2022-09-15T07:18:22.160Z,16.30
2022-09-15T07:22:04.252Z,16.30
2022-09-15T07:25:46.051Z,16.40
2022-09-15T07:29:27.786Z,16.40
2022-09-15T07:33:13.135Z,16.40
2022-09-15T07:36:54.927Z,16.50
2022-09-15T07:40:38.314Z,16.50
2022-09-15T07:44:20.261Z,16.60
2022-09-15T07:48:02.383Z,16.60
2022-09-15T07:51:44.154Z,16.70
2022-09-15T07:55:25.851Z,16.70
2022-09-15T07:59:08.023Z,16.60
2022-09-15T08:02:49.717Z,16.70
2022-09-15T08:06:31.543Z,16.80
2022-09-15T08:10:13.647Z,16.90
2022-09-15T08:13:55.582Z,16.90
2022-09-15T08:17:37.373Z,17.00
2022-09-15T08:21:20.994Z,17.00
2022-09-15T08:25:02.855Z,17.00
2022-09-15T08:28:44.653Z,17.10
2022-09-15T08:32:26.442Z,17.10
2022-09-15T08:36:13.200Z,17.20
2022-09-15T08:39:54.953Z,17.30
2022-09-15T08:43:50.560Z,17.30
2022-09-15T08:47:37.416Z,17.40
2022-09-15T08:51:49.200Z,17.50
2022-09-15T08:55:52.521Z,17.60
2022-09-15T08:59:37.323Z,17.70
2022-09-15T09:03:25.036Z,17.70
2022-09-15T09:07:44.664Z,17.70
2022-09-15T09:11:40.875Z,17.70
2022-09-15T09:15:54.218Z,17.70
2022-09-15T09:20:25.887Z,17.60
2022-09-15T09:24:23.779Z,17.70
2022-09-15T09:28:07.731Z,17.80
2022-09-15T09:31:52.938Z,17.80
2022-09-15T09:35:40.794Z,17.80
2022-09-15T09:39:22.691Z,17.80
2022-09-15T09:43:04.451Z,17.70
2022-09-15T09:46:47.412Z,17.80
2022-09-15T09:50:32.392Z,17.90
2022-09-15T09:54:16.176Z,17.80
2022-09-15T09:58:13.508Z,17.90
2022-09-15T10:02:19.523Z,18.00
2022-09-15T10:06:22.297Z,18.10
2022-09-15T10:10:04.766Z,18.30
2022-09-15T10:13:53.033Z,18.40
2022-09-15T10:17:44.280Z,18.40
2022-09-15T10:21:26.386Z,18.40
2022-09-15T10:25:55.044Z,18.40
2022-09-15T10:29:39.649Z,18.40
2022-09-15T10:33:27.160Z,18.50
2022-09-15T10:37:26.828Z,18.50
2022-09-15T10:41:17.412Z,18.50
2022-09-15T10:45:08.221Z,18.50
2022-09-15T10:49:22.443Z,18.60
2022-09-15T10:53:29.248Z,18.80
2022-09-15T10:57:31.822Z,18.90
2022-09-15T11:01:48.273Z,19.10
2022-09-15T11:05:48.730Z,19.20
2022-09-15T11:09:34.320Z,19.30
2022-09-15T11:13:25.651Z,19.30
2022-09-15T11:17:33.813Z,19.40
2022-09-15T11:21:19.510Z,19.30
2022-09-15T11:25:16.172Z,19.20
2022-09-15T11:29:07.342Z,19.00
2022-09-15T11:32:57.937Z,19.10
2022-09-15T11:36:51.861Z,19.20
2022-09-15T11:40:42.081Z,19.40
2022-09-15T11:44:34.044Z,19.40
2022-09-15T11:48:31.235Z,19.40
2022-09-15T11:52:20.201Z,19.40
2022-09-15T11:56:21.731Z,19.40
2022-09-15T12:00:12.223Z,19.40
2022-09-15T12:04:02.674Z,19.30
2022-09-15T12:07:55.028Z,19.60
2022-09-15T12:11:53.677Z,20.00
2022-09-15T12:15:35.477Z,20.00
2022-09-15T12:19:33.462Z,19.90
2022-09-15T12:23:51.195Z,19.80
2022-09-15T12:27:33.088Z,20.20
2022-09-15T12:31:28.376Z,20.50
2022-09-15T12:35:31.239Z,20.40
2022-09-15T12:39:30.024Z,20.40
2022-09-15T12:43:12.572Z,20.70
2022-09-15T12:46:56.640Z,20.70
2022-09-15T12:50:41.159Z,20.60
2022-09-15T12:54:27.449Z,20.70
2022-09-15T12:58:15.861Z,21.30
2022-09-15T13:01:58.984Z,21.90
2022-09-15T13:05:46.044Z,22.00
2022-09-15T13:09:28.693Z,22.00
2022-09-15T13:13:17.457Z,22.00
2022-09-15T13:17:07.141Z,22.20
2022-09-15T13:21:00.435Z,22.60
2022-09-15T13:24:50.138Z,22.90
2022-09-15T13:28:32.078Z,22.90
2022-09-15T13:32:39.788Z,22.80
2022-09-15T13:38:04.628Z,22.70
2022-09-15T13:41:10.026Z,23.30
2022-09-15T13:45:20.015Z,24.00
2022-09-15T13:49:01.686Z,24.30
2022-09-15T13:53:06.983Z,24.50
2022-09-15T13:56:53.071Z,24.90
2022-09-15T14:00:53.966Z,24.90
2022-09-15T14:04:38.938Z,24.70
2022-09-15T14:08:25.173Z,24.30
2022-09-15T14:12:12.365Z,23.90
2022-09-15T14:16:01.235Z,23.50
2022-09-15T14:19:43.270Z,23.40
2022-09-15T14:23:25.031Z,23.30
2022-09-15T14:27:09.905Z,23.10
2022-09-15T14:30:51.709Z,22.90
2022-09-15T14:34:37.067Z,22.80
2022-09-15T14:38:22.626Z,22.50
2022-09-15T14:42:22.395Z,22.20
2022-09-15T14:46:19.030Z,22.00
2022-09-15T14:50:11.450Z,22.00
2022-09-15T14:53:57.485Z,22.00
2022-09-15T14:57:41.400Z,21.90
2022-09-15T15:01:31.604Z,21.90
2022-09-15T15:05:21.294Z,21.90
2022-09-15T15:09:14.568Z,21.90
2022-09-15T15:13:02.628Z,22.00
2022-09-15T15:16:52.874Z,22.10
2022-09-15T15:20:34.676Z,22.10
2022-09-15T15:24:20.344Z,22.00
2022-09-15T15:28:02.327Z,21.90
2022-09-15T15:31:44.282Z,21.90
2022-09-15T15:35:27.510Z,22.00
2022-09-15T15:39:24.909Z,22.10
2022-09-15T15:43:27.089Z,22.30
2022-09-15T15:47:11.802Z,22.50
2022-09-15T15:50:53.908Z,22.90
2022-09-15T15:54:35.679Z,22.80
2022-09-15T15:58:17.891Z,22.80
2022-09-15T16:01:59.630Z,22.80
2022-09-15T16:05:47.952Z,22.80
2022-09-15T16:09:29.866Z,22.60
2022-09-15T16:13:16.379Z,22.20
2022-09-15T16:17:01.042Z,21.90
2022-09-15T16:20:43.394Z,21.60
2022-09-15T16:24:25.149Z,21.40
2022-09-15T16:28:06.947Z,21.30
2022-09-15T16:31:49.449Z,21.30
2022-09-15T16:35:55.867Z,21.10
2022-09-15T16:39:37.673Z,20.90
2022-09-15T16:43:23.606Z,20.80
2022-09-15T16:47:06.814Z,20.60
2022-09-15T16:51:16.108Z,20.60
2022-09-15T16:54:51.754Z,20.50
2022-09-15T16:58:33.996Z,20.60
2022-09-15T17:02:15.834Z,20.50
2022-09-15T17:06:00.347Z,20.40
2022-09-15T17:09:42.307Z,20.40
2022-09-15T17:13:30.291Z,20.30
2022-09-15T17:17:25.717Z,20.20
2022-09-15T17:21:09.570Z,20.10
2022-09-15T17:24:51.284Z,20.00
2022-09-15T17:28:34.919Z,20.00
2022-09-15T17:32:16.661Z,19.90
2022-09-15T17:35:59.270Z,19.90
2022-09-15T17:39:41.015Z,19.90
2022-09-15T17:43:27.612Z,19.80
2022-09-15T17:47:09.572Z,19.70
2022-09-15T17:50:51.553Z,19.60
2022-09-15T17:54:33.344Z,19.50
2022-09-15T17:58:15.295Z,19.50
2022-09-15T18:01:57.222Z,19.40
2022-09-15T18:05:39.312Z,19.30
2022-09-15T18:09:21.064Z,19.20
2022-09-15T18:13:05.345Z,19.10
2022-09-15T18:16:47.170Z,18.90
2022-09-15T18:20:30.971Z,18.90
2022-09-15T18:24:14.994Z,18.80
2022-09-15T18:27:58.129Z,18.70
2022-09-15T18:31:39.837Z,18.60
2022-09-15T18:35:22.392Z,18.50
2022-09-15T18:39:05.233Z,18.40
2022-09-15T18:42:46.999Z,18.40
2022-09-15T18:46:28.729Z,18.30
2022-09-15T18:50:13.042Z,18.20
2022-09-15T18:53:54.774Z,18.20
2022-09-15T18:57:37.930Z,18.20
2022-09-15T19:01:20.432Z,18.10
2022-09-15T19:05:03.952Z,18.00
2022-09-15T19:08:45.692Z,18.00
2022-09-15T19:12:27.497Z,18.00
2022-09-15T19:16:09.636Z,17.90
2022-09-15T19:19:51.446Z,17.90
2022-09-15T19:23:33.237Z,17.90
2022-09-15T19:27:14.986Z,17.80
2022-09-15T19:30:56.946Z,17.80
2022-09-15T19:34:41.880Z,17.70
2022-09-15T19:38:23.620Z,17.70
2022-09-15T19:42:07.204Z,17.70
2022-09-15T19:45:49.460Z,17.70
2022-09-15T19:49:31.234Z,17.60
2022-09-15T19:53:12.975Z,17.60
2022-09-15T19:56:56.018Z,17.60
2022-09-15T20:00:37.781Z,17.60
2022-09-15T20:04:19.593Z,17.60
2022-09-15T20:08:02.075Z,17.60
2022-09-15T20:11:43.929Z,17.50
2022-09-15T20:15:25.635Z,17.40
2022-09-15T20:19:07.589Z,17.30
2022-09-15T20:22:49.389Z,17.30
2022-09-15T20:26:32.272Z,17.10
2022-09-15T20:30:14.299Z,17.00
2022-09-15T20:33:56.199Z,16.90
2022-09-15T20:37:37.941Z,16.90
2022-09-15T20:41:23.025Z,16.80
2022-09-15T20:45:05.284Z,16.70
2022-09-15T20:48:47.832Z,16.50
2022-09-15T20:52:37.410Z,16.40
2022-09-15T20:56:25.294Z,16.40
2022-09-15T21:00:11.860Z,16.40
2022-09-15T21:03:57.049Z,16.30
2022-09-15T21:07:39.143Z,16.30
2022-09-15T21:11:23.760Z,16.30
2022-09-15T21:15:06.375Z,16.30
2022-09-15T21:18:50.311Z,16.30
2022-09-15T21:22:33.057Z,16.30
2022-09-15T21:26:21.437Z,16.20
2022-09-15T21:30:04.193Z,16.20
2022-09-15T21:33:48.040Z,16.10
2022-09-15T21:37:29.829Z,16.10
2022-09-15T21:41:16.298Z,16.00
2022-09-15T21:45:02.150Z,16.00
2022-09-15T21:48:47.905Z,15.90
2022-09-15T21:52:31.671Z,15.90
2022-09-15T21:56:16.492Z,15.80
2022-09-15T22:00:02.303Z,15.70
2022-09-15T22:03:50.386Z,15.60
2022-09-15T22:07:33.415Z,15.50
2022-09-15T22:11:17.032Z,15.50
2022-09-15T22:14:59.067Z,15.40
2022-09-15T22:18:42.061Z,15.30
2022-09-15T22:22:23.816Z,15.20
2022-09-15T22:26:10.520Z,15.20
2022-09-15T22:29:52.296Z,15.10
2022-09-15T22:33:34.918Z,15.10
2022-09-15T22:37:16.636Z,15.00
2022-09-15T22:41:05.032Z,14.90
2022-09-15T22:44:47.026Z,14.90
2022-09-15T22:48:29.097Z,14.90
2022-09-15T22:52:11.078Z,14.80
2022-09-15T22:56:04.904Z,14.80
2022-09-15T22:59:46.645Z,14.70
2022-09-15T23:03:28.339Z,14.70
2022-09-15T23:07:10.084Z,14.60
2022-09-15T23:10:52.197Z,14.60
2022-09-15T23:14:33.943Z,14.50
2022-09-15T23:18:15.950Z,14.50
2022-09-15T23:21:57.690Z,14.50
2022-09-15T23:25:39.500Z,14.40
2022-09-15T23:29:21.417Z,14.40
2022-09-15T23:33:03.241Z,14.30
2022-09-15T23:36:45.076Z,14.30
2022-09-15T23:40:27.157Z,14.20
2022-09-15T23:44:12.192Z,14.20
2022-09-15T23:47:53.924Z,14.10
2022-09-15T23:51:35.885Z,14.10
2022-09-15T23:55:17.767Z,14.00
2022-09-15T23:58:59.758Z,14.00
